createdAt,value
2023-08-02T00:02:56.629Z,99148.00
2023-08-02T00:08:00.808Z,99146.31
2023-08-02T00:13:03.670Z,99143.28
2023-08-02T00:18:06.750Z,99131.81
2023-08-02T00:23:11.078Z,99134.84
2023-08-02T00:28:14.155Z,99144.97
2023-08-02T00:33:17.245Z,99148.63
2023-08-02T00:38:22.232Z,99143.59
2023-08-02T00:43:25.066Z,99138.19
2023-08-02T00:48:28.021Z,99143.91
2023-08-02T00:53:32.396Z,99139.56
2023-08-02T00:58:35.687Z,99138.84
2023-08-02T01:03:38.735Z,99137.16
2023-08-02T01:08:45.233Z,99130.25
2023-08-02T01:13:51.344Z,99122.53
2023-08-02T01:18:54.423Z,99124.38
2023-08-02T01:23:58.705Z,99121.84
2023-08-02T01:29:03.379Z,99122.81
2023-08-02T01:34:06.265Z,99125.69
2023-08-02T01:39:10.392Z,99135.63
2023-08-02T01:44:13.345Z,99115.25
2023-08-02T01:49:16.291Z,99120.81
2023-08-02T01:54:21.443Z,99113.75
2023-08-02T01:59:24.369Z,99118.44
2023-08-02T02:04:27.453Z,99116.75
2023-08-02T02:09:31.884Z,99111.53
2023-08-02T02:14:34.767Z,99100.91
2023-08-02T02:19:37.556Z,99098.41
2023-08-02T02:24:41.766Z,99099.41
2023-08-02T02:29:44.761Z,99095.03
2023-08-02T02:34:47.633Z,99091.50
2023-08-02T02:39:52.070Z,99098.03
2023-08-02T02:44:55.120Z,99091.97
2023-08-02T02:49:59.588Z,99086.59
2023-08-02T02:55:03.743Z,99086.94
2023-08-02T03:00:09.687Z,99085.06
2023-08-02T03:05:12.550Z,99086.09
2023-08-02T03:10:16.793Z,99090.78
2023-08-02T03:15:19.673Z,99093.47
2023-08-02T03:20:22.474Z,99097.16
2023-08-02T03:25:26.776Z,99099.84
2023-08-02T03:30:29.992Z,99093.97
2023-08-02T03:35:32.919Z,99086.91
2023-08-02T03:40:37.135Z,99092.94
2023-08-02T03:45:40.003Z,99085.22
2023-08-02T03:50:42.898Z,99092.44
2023-08-02T03:55:47.148Z,99080.84
2023-08-02T04:00:50.038Z,99090.94
2023-08-02T04:05:52.840Z,99077.47
2023-08-02T04:10:57.087Z,99080.25
2023-08-02T04:16:00.053Z,99073.19
2023-08-02T04:21:02.971Z,99072.19
2023-08-02T04:26:12.192Z,99081.97
2023-08-02T04:31:15.173Z,99065.84
2023-08-02T04:36:18.137Z,99064.84
2023-08-02T04:41:22.353Z,99067.38
2023-08-02T04:46:27.486Z,99066.38
2023-08-02T04:51:30.467Z,99052.06
2023-08-02T04:56:34.867Z,99033.91
2023-08-02T05:01:37.996Z,99042.66
2023-08-02T05:06:42.112Z,99061.50
2023-08-02T05:11:47.166Z,99046.88
2023-08-02T05:16:50.196Z,99036.13
2023-08-02T05:21:54.613Z,99039.31
2023-08-02T05:26:58.883Z,99048.91
2023-08-02T05:32:02.201Z,99028.19
2023-08-02T05:37:06.678Z,99029.03
2023-08-02T05:42:11.575Z,99034.97
2023-08-02T05:47:14.760Z,99033.59
2023-08-02T05:52:22.401Z,99040.50
2023-08-02T05:57:28.495Z,99042.38
2023-08-02T06:02:31.727Z,99042.75
2023-08-02T06:07:34.923Z,99013.13
2023-08-02T06:12:39.250Z,99014.63
2023-08-02T06:17:42.182Z,99018.34
2023-08-02T06:22:45.048Z,99018.50
2023-08-02T06:27:49.364Z,99019.84
2023-08-02T06:32:52.322Z,99014.13
2023-08-02T06:37:55.344Z,99012.78
2023-08-02T06:42:59.514Z,99013.38
2023-08-02T06:48:02.523Z,99008.63
2023-08-02T06:53:08.641Z,98997.84
2023-08-02T06:58:19.812Z,98998.69
2023-08-02T07:03:27.816Z,98984.03
2023-08-02T07:08:31.022Z,98974.78
2023-08-02T07:13:37.007Z,98976.66
2023-08-02T07:18:40.321Z,98979.59
2023-08-02T07:23:43.570Z,98958.09
2023-08-02T07:28:48.945Z,98967.63
2023-08-02T07:33:53.786Z,98957.38
2023-08-02T07:38:57.348Z,98966.13
2023-08-02T07:44:01.806Z,98955.72
2023-08-02T07:49:05.329Z,98956.22
2023-08-02T07:54:13.848Z,98958.72
2023-08-02T07:59:21.489Z,98953.34
2023-08-02T08:04:24.681Z,98948.97
2023-08-02T08:09:27.683Z,98950.31
2023-08-02T08:14:32.261Z,98948.97
2023-08-02T08:19:35.424Z,98949.13
2023-08-02T08:24:38.349Z,98935.84
2023-08-02T08:29:42.614Z,98926.38
2023-08-02T08:34:45.455Z,98925.22
2023-08-02T08:39:51.561Z,98911.56
2023-08-02T08:45:04.939Z,98917.28
2023-08-02T08:50:09.730Z,98903.47
2023-08-02T08:55:12.567Z,98904.13
2023-08-02T09:00:17.628Z,98906.66
2023-08-02T09:05:20.897Z,98898.19
2023-08-02T09:10:23.833Z,98888.63
2023-08-02T09:15:28.380Z,98876.63
2023-08-02T09:20:31.255Z,98867.38
2023-08-02T09:25:34.165Z,98863.50
2023-08-02T09:30:38.652Z,98852.88
2023-08-02T09:35:51.525Z,98856.50
2023-08-02T09:41:35.929Z,98843.00
2023-08-02T09:46:27.239Z,98834.69
2023-08-02T09:51:40.432Z,98826.41
2023-08-02T09:56:43.974Z,98816.28
2023-08-02T10:01:48.886Z,98811.19
2023-08-02T10:06:54.443Z,98802.56
2023-08-02T10:12:00.055Z,98796.63
2023-08-02T10:17:04.791Z,98781.91
2023-08-02T10:22:07.929Z,98784.91
2023-08-02T10:27:11.145Z,98774.59
2023-08-02T10:32:16.225Z,98770.03
2023-08-02T10:37:20.530Z,98753.75
2023-08-02T10:42:24.866Z,98762.00
2023-08-02T10:47:29.689Z,98751.22
2023-08-02T10:52:33.416Z,98742.78
2023-08-02T10:57:36.537Z,98742.97
2023-08-02T11:02:48.328Z,98745.72
2023-08-02T11:08:01.408Z,98752.78
2023-08-02T11:13:04.564Z,98733.25
2023-08-02T11:18:10.669Z,98717.97
2023-08-02T11:23:23.635Z,98723.25
2023-08-02T11:28:26.664Z,98710.28
2023-08-02T11:33:31.077Z,98700.84
2023-08-02T11:38:34.147Z,98685.09
2023-08-02T11:43:37.438Z,98681.75
2023-08-02T11:48:42.068Z,98678.63
2023-08-02T11:53:49.812Z,98644.75
2023-08-02T11:58:52.774Z,98617.31
2023-08-02T12:03:58.061Z,98622.25
2023-08-02T12:09:03.198Z,98591.94
2023-08-02T12:14:07.478Z,98572.03
2023-08-02T12:19:11.695Z,98570.16
2023-08-02T12:24:14.984Z,98572.41
2023-08-02T12:29:24.467Z,98575.44
2023-08-02T12:34:29.364Z,98570.81
2023-08-02T12:39:32.217Z,98556.13
2023-08-02T12:44:35.180Z,98576.22
2023-08-02T12:49:39.428Z,98600.66
2023-08-02T12:54:42.694Z,98606.41
2023-08-02T12:59:45.774Z,98591.41
2023-08-02T13:04:50.215Z,98584.84
2023-08-02T13:09:53.131Z,98561.88
2023-08-02T13:14:56.515Z,98522.97
2023-08-02T13:20:01.023Z,98490.06
2023-08-02T13:25:05.048Z,98489.88
2023-08-02T13:30:09.286Z,98459.81
2023-08-02T13:35:13.996Z,98453.47
2023-08-02T13:40:17.359Z,98456.25
2023-08-02T13:45:20.676Z,98457.38
2023-08-02T13:50:24.927Z,98458.38
2023-08-02T13:55:28.069Z,98461.91
2023-08-02T14:00:30.998Z,98452.97
2023-08-02T14:05:35.503Z,98455.88
2023-08-02T14:10:40.331Z,98468.53
2023-08-02T14:15:43.491Z,98467.25
2023-08-02T14:20:47.909Z,98453.75
2023-08-02T14:25:50.973Z,98447.88
2023-08-02T14:30:53.904Z,98451.41
2023-08-02T14:35:58.481Z,98449.41
2023-08-02T14:41:02.603Z,98454.78
2023-08-02T14:46:05.847Z,98432.38
2023-08-02T14:51:10.455Z,98436.25
2023-08-02T14:56:14.470Z,98404.28
2023-08-02T15:01:17.560Z,98385.81
2023-08-02T15:06:26.235Z,98400.63
2023-08-02T15:11:29.754Z,98327.38
2023-08-02T15:16:33.089Z,98334.06
2023-08-02T15:21:39.644Z,98353.59
2023-08-02T15:26:42.980Z,98348.44
2023-08-02T15:31:46.302Z,98352.81
2023-08-02T15:36:50.915Z,98344.91
2023-08-02T15:41:53.821Z,98329.00
2023-08-02T15:46:56.972Z,98320.75
2023-08-02T15:52:01.336Z,98328.09
2023-08-02T15:57:04.763Z,98278.34
2023-08-02T16:02:08.312Z,98265.78
2023-08-02T16:07:12.777Z,98253.19
2023-08-02T16:12:17.339Z,98245.72
2023-08-02T16:17:22.520Z,98235.72
2023-08-02T16:22:26.838Z,98245.56
2023-08-02T16:27:29.733Z,98231.44
2023-08-02T16:32:32.646Z,98220.63
2023-08-02T16:37:37.081Z,98229.75
2023-08-02T16:42:40.078Z,98224.13
2023-08-02T16:47:43.180Z,98242.84
2023-08-02T16:52:47.501Z,98241.78
2023-08-02T16:57:50.381Z,98221.22
2023-08-02T17:02:53.315Z,98242.16
2023-08-02T17:07:57.853Z,98241.88
2023-08-02T17:13:00.896Z,98256.53
2023-08-02T17:18:04.690Z,98225.06
2023-08-02T17:23:09.547Z,98230.38
2023-08-02T17:28:12.433Z,98220.06
2023-08-02T17:33:15.474Z,98190.34
2023-08-02T17:38:19.867Z,98196.41
2023-08-02T17:43:23.189Z,98238.47
2023-08-02T17:48:26.152Z,98265.38
2023-08-02T17:53:33.390Z,98232.09
2023-08-02T17:58:38.309Z,98246.25
2023-08-02T18:03:42.823Z,98227.31
2023-08-02T18:08:48.486Z,98208.22
2023-08-02T18:13:51.627Z,98206.69
2023-08-02T18:18:54.620Z,98197.31
2023-08-02T18:23:59.175Z,98189.88
2023-08-02T18:29:02.218Z,98166.22
2023-08-02T18:34:05.110Z,98175.31
2023-08-02T18:39:11.056Z,98097.13
2023-08-02T18:44:14.020Z,98102.41
2023-08-02T18:49:16.941Z,98136.44
2023-08-02T18:54:21.531Z,98132.19
2023-08-02T18:59:24.388Z,98155.63
2023-08-02T19:04:27.197Z,98174.28
2023-08-02T19:09:32.040Z,98199.44
2023-08-02T19:14:35.045Z,98202.22
2023-08-02T19:19:37.945Z,98234.50
2023-08-02T19:24:43.925Z,98241.22
2023-08-02T19:29:46.804Z,98259.50
2023-08-02T19:34:52.466Z,98253.34
2023-08-02T19:39:56.714Z,98277.56
2023-08-02T19:44:59.891Z,98263.25
2023-08-02T19:50:02.811Z,98257.06
2023-08-02T19:55:08.488Z,98267.59
2023-08-02T20:00:18.880Z,98288.75
2023-08-02T20:05:54.676Z,98239.78
2023-08-02T20:11:01.198Z,98244.41
2023-08-02T20:16:05.940Z,98246.78
2023-08-02T20:21:20.958Z,98247.50
2023-08-02T20:26:26.791Z,98235.38
2023-08-02T20:31:35.387Z,98234.34
2023-08-02T20:36:38.364Z,98239.25
2023-08-02T20:41:43.225Z,98236.22
2023-08-02T20:46:46.419Z,98231.56
2023-08-02T20:51:49.619Z,98244.09
2023-08-02T20:56:54.726Z,98252.09
2023-08-02T21:01:57.678Z,98266.19
2023-08-02T21:07:11.282Z,98282.25
2023-08-02T21:12:16.249Z,98278.97
2023-08-02T21:17:20.396Z,98294.19
2023-08-02T21:22:23.237Z,98294.63
2023-08-02T21:27:28.208Z,98290.72
2023-08-02T21:32:41.043Z,98307.47
2023-08-02T21:37:44.810Z,98306.25
2023-08-02T21:42:49.209Z,98329.78
2023-08-02T21:47:52.290Z,98332.66
2023-08-02T21:52:55.164Z,98329.72
2023-08-02T21:58:00.482Z,98339.00
2023-08-02T22:03:03.535Z,98357.13
2023-08-02T22:08:10.475Z,98363.03
2023-08-02T22:13:15.707Z,98368.78
2023-08-02T22:18:18.642Z,98382.91
2023-08-02T22:23:21.502Z,98385.31
2023-08-02T22:28:25.821Z,98398.94
2023-08-02T22:33:28.700Z,98415.88
2023-08-02T22:38:46.806Z,98413.69
2023-08-02T22:43:52.756Z,98416.81
2023-08-02T22:50:20.019Z,98417.16
2023-08-02T22:54:21.011Z,98425.38
2023-08-02T22:59:25.266Z,98425.66
2023-08-02T23:04:28.325Z,98435.06
2023-08-02T23:09:31.259Z,98441.09
2023-08-02T23:14:35.489Z,98442.56
2023-08-02T23:19:38.323Z,98438.31
2023-08-02T23:24:42.772Z,98463.19
2023-08-02T23:29:47.062Z,98472.69
2023-08-02T23:34:49.947Z,98474.41
2023-08-02T23:39:52.806Z,98483.34
2023-08-02T23:44:57.007Z,98485.38
2023-08-02T23:49:59.876Z,98504.88
2023-08-02T23:55:02.964Z,98507.75
